createdAt,value
2018-05-31T00:01:11.259Z,17.91
2018-05-31T00:03:38.991Z,17.90
2018-05-31T00:06:06.561Z,17.88
2018-05-31T00:08:34.099Z,17.68
2018-05-31T00:11:01.753Z,17.53
2018-05-31T00:13:29.301Z,17.87
2018-05-31T00:15:56.958Z,17.91
2018-05-31T00:18:24.621Z,17.97
2018-05-31T00:20:52.185Z,17.94
2018-05-31T00:23:19.734Z,17.74
2018-05-31T00:25:47.310Z,17.80
2018-05-31T00:28:14.863Z,17.73
2018-05-31T00:30:42.419Z,17.75
2018-05-31T00:33:09.967Z,17.74
2018-05-31T00:35:37.541Z,17.72
2018-05-31T00:38:05.101Z,17.71
2018-05-31T00:40:32.674Z,17.76
2018-05-31T00:43:00.215Z,17.78
2018-05-31T00:45:27.776Z,17.67
2018-05-31T00:47:55.330Z,17.67
2018-05-31T00:50:22.930Z,17.48
2018-05-31T00:52:50.554Z,17.43
2018-05-31T00:55:24.062Z,17.77
2018-05-31T00:57:51.716Z,17.44
2018-05-31T01:00:19.386Z,17.55
2018-05-31T01:02:47.045Z,17.65
2018-05-31T01:05:14.644Z,17.71
2018-05-31T01:07:42.196Z,17.45
2018-05-31T01:10:09.751Z,17.60
2018-05-31T01:12:37.379Z,17.69
2018-05-31T01:15:04.978Z,17.69
2018-05-31T01:17:32.524Z,17.62
2018-05-31T01:20:00.162Z,17.68
2018-05-31T01:22:27.719Z,17.77
2018-05-31T01:24:55.257Z,17.79
2018-05-31T01:27:22.837Z,17.73
2018-05-31T01:29:50.394Z,17.77
2018-05-31T01:32:17.994Z,17.79
2018-05-31T01:34:45.621Z,17.91
2018-05-31T01:37:13.173Z,17.66
2018-05-31T01:39:40.726Z,17.72
2018-05-31T01:42:08.301Z,17.74
2018-05-31T01:44:35.959Z,17.53
2018-05-31T01:47:03.632Z,17.58
2018-05-31T01:49:31.241Z,17.58
2018-05-31T01:51:58.845Z,17.72
2018-05-31T01:54:26.389Z,17.84
2018-05-31T01:56:53.966Z,17.65
2018-05-31T01:59:21.540Z,17.19
2018-05-31T02:01:49.107Z,16.98
2018-05-31T02:04:16.718Z,16.93
2018-05-31T02:06:44.300Z,16.92
2018-05-31T02:09:11.926Z,16.91
2018-05-31T02:11:39.711Z,16.98
2018-05-31T02:14:07.335Z,16.95
2018-05-31T02:16:34.934Z,16.88
2018-05-31T02:19:02.512Z,16.98
2018-05-31T02:21:30.090Z,16.96
2018-05-31T02:23:57.732Z,17.02
2018-05-31T02:26:25.392Z,17.16
2018-05-31T02:28:52.916Z,17.25
2018-05-31T02:31:20.494Z,17.14
2018-05-31T02:33:48.050Z,16.98
2018-05-31T02:36:15.732Z,16.84
2018-05-31T02:38:43.378Z,17.02
2018-05-31T02:41:11.056Z,17.18
2018-05-31T02:43:38.726Z,17.21
2018-05-31T02:46:06.386Z,17.14
2018-05-31T02:48:33.987Z,17.11
2018-05-31T02:51:01.566Z,17.23
2018-05-31T02:53:29.093Z,17.30
2018-05-31T02:55:56.669Z,17.33
2018-05-31T02:58:24.283Z,17.28
2018-05-31T03:00:51.821Z,17.27
2018-05-31T03:03:19.403Z,17.34
2018-05-31T03:05:46.949Z,17.36
2018-05-31T03:08:14.621Z,17.32
2018-05-31T03:10:42.153Z,17.40
2018-05-31T03:13:10.128Z,17.31
2018-05-31T03:15:37.702Z,17.24
2018-05-31T03:18:05.291Z,17.12
2018-05-31T03:20:32.829Z,17.17
2018-05-31T03:23:00.441Z,17.21
2018-05-31T03:25:27.994Z,17.09
2018-05-31T03:27:56.454Z,17.14
2018-05-31T03:30:24.047Z,17.17
2018-05-31T03:32:51.646Z,17.15
2018-05-31T03:35:19.226Z,17.23
2018-05-31T03:37:46.876Z,17.24
2018-05-31T03:40:14.531Z,17.27
2018-05-31T03:42:42.085Z,17.25
2018-05-31T03:45:10.264Z,17.33
2018-05-31T03:47:37.839Z,17.14
2018-05-31T03:50:05.388Z,17.22
2018-05-31T03:52:33.045Z,17.23
2018-05-31T03:55:00.591Z,17.29
2018-05-31T03:57:28.193Z,17.15
2018-05-31T03:59:55.759Z,17.19
2018-05-31T04:02:23.348Z,17.06
2018-05-31T04:04:50.901Z,17.19
2018-05-31T04:07:18.565Z,17.26
2018-05-31T04:09:46.163Z,17.26
2018-05-31T04:12:13.824Z,17.40
2018-05-31T04:14:41.487Z,17.32
2018-05-31T04:17:09.092Z,17.20
2018-05-31T04:19:36.641Z,17.21
2018-05-31T04:22:04.219Z,17.15
2018-05-31T04:24:31.768Z,17.16
2018-05-31T04:26:59.352Z,16.96
2018-05-31T04:29:26.960Z,16.82
2018-05-31T04:31:54.523Z,16.90
2018-05-31T04:34:22.178Z,16.97
2018-05-31T04:36:49.729Z,16.94
2018-05-31T04:39:17.350Z,17.13
2018-05-31T04:41:44.901Z,17.26
2018-05-31T04:44:12.505Z,17.45
2018-05-31T04:46:40.442Z,17.30
2018-05-31T04:49:08.040Z,17.46
2018-05-31T04:51:35.581Z,17.44
2018-05-31T04:54:03.161Z,17.37
2018-05-31T04:56:30.712Z,17.42
2018-05-31T04:58:58.375Z,17.52
2018-05-31T05:01:25.950Z,17.46
2018-05-31T05:03:53.595Z,17.44
2018-05-31T05:06:21.174Z,17.62
2018-05-31T05:08:48.814Z,17.50
2018-05-31T05:11:16.358Z,17.40
2018-05-31T05:13:43.960Z,17.36
2018-05-31T05:16:11.582Z,17.12
2018-05-31T05:18:39.166Z,17.00
2018-05-31T05:21:06.821Z,17.23
2018-05-31T05:23:34.484Z,17.38
2018-05-31T05:26:02.023Z,17.33
2018-05-31T05:28:29.702Z,17.49
2018-05-31T05:30:57.376Z,17.45
2018-05-31T05:33:24.958Z,17.36
2018-05-31T05:35:52.584Z,17.67
2018-05-31T05:38:20.158Z,17.94
2018-05-31T05:40:47.684Z,17.99
2018-05-31T05:43:15.254Z,18.26
2018-05-31T05:45:42.793Z,18.37
2018-05-31T05:48:10.690Z,18.37
2018-05-31T05:50:38.275Z,18.52
2018-05-31T05:53:05.873Z,18.54
2018-05-31T05:55:33.425Z,18.58
2018-05-31T05:58:01.000Z,18.60
2018-05-31T06:00:28.550Z,18.68
2018-05-31T06:02:56.157Z,18.83
2018-05-31T06:05:23.708Z,18.88
2018-05-31T06:07:51.374Z,18.98
2018-05-31T06:10:19.182Z,18.83
2018-05-31T06:12:46.712Z,19.02
2018-05-31T06:15:14.290Z,18.95
2018-05-31T06:17:41.845Z,19.15
2018-05-31T06:20:09.475Z,19.35
2018-05-31T06:22:37.002Z,19.24
2018-05-31T06:25:04.573Z,19.36
2018-05-31T06:27:32.133Z,19.40
2018-05-31T06:29:59.832Z,19.51
2018-05-31T06:32:29.678Z,19.64
2018-05-31T06:35:00.558Z,19.36
2018-05-31T06:37:29.181Z,19.70
2018-05-31T06:39:56.787Z,20.02
2018-05-31T06:42:24.305Z,20.02
2018-05-31T06:44:51.959Z,20.19
2018-05-31T06:47:19.495Z,20.33
2018-05-31T06:49:47.827Z,20.32
2018-05-31T06:52:15.347Z,20.04
2018-05-31T06:54:42.978Z,20.24
2018-05-31T06:57:12.049Z,20.24
2018-05-31T06:59:39.630Z,19.94
2018-05-31T07:02:07.154Z,19.94
2018-05-31T07:04:34.733Z,19.71
2018-05-31T07:07:02.932Z,19.75
2018-05-31T07:09:30.511Z,19.80
2018-05-31T07:12:03.044Z,19.91
2018-05-31T07:14:32.294Z,19.90
2018-05-31T07:16:59.895Z,20.12
2018-05-31T07:19:28.520Z,19.96
2018-05-31T07:21:56.178Z,20.14
2018-05-31T07:24:23.741Z,20.09
2018-05-31T07:26:51.402Z,20.16
2018-05-31T07:29:19.138Z,20.51
2018-05-31T07:31:49.129Z,20.31
2018-05-31T07:34:19.788Z,20.51
2018-05-31T07:36:48.884Z,20.68
2018-05-31T07:39:19.000Z,20.68
2018-05-31T07:41:49.848Z,20.67
2018-05-31T07:44:17.746Z,20.60
2018-05-31T07:46:50.660Z,20.22
2018-05-31T07:49:19.317Z,20.43
2018-05-31T07:51:46.846Z,20.78
2018-05-31T07:54:16.555Z,20.58
2018-05-31T07:56:46.422Z,20.36
2018-05-31T07:59:15.528Z,20.60
2018-05-31T08:01:47.729Z,20.96
2018-05-31T08:04:22.453Z,21.11
2018-05-31T08:06:51.252Z,20.94
2018-05-31T08:09:19.334Z,21.01
2018-05-31T08:11:48.644Z,21.21
2018-05-31T08:14:19.651Z,21.56
2018-05-31T08:16:47.529Z,21.60
2018-05-31T08:19:18.987Z,20.95
2018-05-31T08:21:48.956Z,21.00
2018-05-31T08:24:18.526Z,21.17
2018-05-31T08:26:48.492Z,21.31
2018-05-31T08:29:17.817Z,20.92
2018-05-31T08:31:47.914Z,21.05
2018-05-31T08:34:15.717Z,21.31
2018-05-31T08:36:45.387Z,21.37
2018-05-31T08:39:13.597Z,21.46
2018-05-31T08:41:42.476Z,21.40
2018-05-31T08:44:12.309Z,21.38
2018-05-31T08:46:42.010Z,21.36
2018-05-31T08:49:10.765Z,21.41
2018-05-31T08:51:39.795Z,21.47
2018-05-31T08:54:07.951Z,21.44
2018-05-31T08:56:38.318Z,21.43
2018-05-31T08:59:05.922Z,21.60
2018-05-31T09:01:33.890Z,21.62
2018-05-31T09:04:04.229Z,21.66
2018-05-31T09:06:34.879Z,22.09
2018-05-31T09:09:04.279Z,22.10
2018-05-31T09:11:32.768Z,22.20
2018-05-31T09:14:00.748Z,22.18
2018-05-31T09:16:28.372Z,22.23
2018-05-31T09:18:55.923Z,22.31
2018-05-31T09:21:23.495Z,22.44
2018-05-31T09:23:51.225Z,22.64
2018-05-31T09:26:21.071Z,22.18
2018-05-31T09:28:49.108Z,21.98
2018-05-31T09:31:19.616Z,22.01
2018-05-31T09:33:50.585Z,22.20
2018-05-31T09:36:18.346Z,22.23
2018-05-31T09:38:46.217Z,22.44
2018-05-31T09:41:13.882Z,22.75
2018-05-31T09:43:41.646Z,22.77
2018-05-31T09:46:09.248Z,22.84
2018-05-31T09:48:36.802Z,22.65
2018-05-31T09:51:04.462Z,22.87
2018-05-31T09:53:31.972Z,22.92
2018-05-31T09:55:59.530Z,22.80
2018-05-31T09:58:27.142Z,22.90
2018-05-31T10:00:54.706Z,23.04
2018-05-31T10:03:22.242Z,23.05
2018-05-31T10:05:49.815Z,23.21
2018-05-31T10:08:18.172Z,23.15
2018-05-31T10:10:45.922Z,23.12
2018-05-31T10:13:13.526Z,23.22
2018-05-31T10:15:42.005Z,23.17
2018-05-31T10:18:09.841Z,23.19
2018-05-31T10:20:37.429Z,23.37
2018-05-31T10:23:04.978Z,23.33
2018-05-31T10:25:32.838Z,23.31
2018-05-31T10:28:00.357Z,23.49
2018-05-31T10:30:29.101Z,23.73
2018-05-31T10:32:56.736Z,23.50
2018-05-31T10:35:24.261Z,23.16
2018-05-31T10:37:51.822Z,23.43
2018-05-31T10:40:19.346Z,23.65
2018-05-31T10:42:46.999Z,23.53
2018-05-31T10:45:14.521Z,23.28
2018-05-31T10:47:42.082Z,23.52
2018-05-31T10:50:09.603Z,23.65
2018-05-31T10:52:37.237Z,23.73
2018-05-31T10:55:04.757Z,23.87
2018-05-31T10:57:32.316Z,24.00
2018-05-31T10:59:59.915Z,23.75
2018-05-31T11:02:27.467Z,23.82
2018-05-31T11:04:54.989Z,23.69
2018-05-31T11:07:22.537Z,23.83
2018-05-31T11:09:50.128Z,24.12
2018-05-31T11:12:17.689Z,24.26
2018-05-31T11:14:45.228Z,24.50
2018-05-31T11:17:12.802Z,24.13
2018-05-31T11:19:40.327Z,24.45
2018-05-31T11:22:07.882Z,24.36
2018-05-31T11:24:35.514Z,24.32
2018-05-31T11:27:03.067Z,24.45
2018-05-31T11:29:30.640Z,24.39
2018-05-31T11:31:58.291Z,24.24
2018-05-31T11:34:25.851Z,24.50
2018-05-31T11:36:53.413Z,24.45
2018-05-31T11:39:20.967Z,24.33
2018-05-31T11:41:48.530Z,24.56
2018-05-31T11:44:16.095Z,24.70
2018-05-31T11:46:43.652Z,24.66
2018-05-31T11:49:12.159Z,24.68
2018-05-31T11:51:39.708Z,24.80
2018-05-31T11:54:07.264Z,24.71
2018-05-31T11:56:34.811Z,24.71
2018-05-31T11:59:02.364Z,25.09
2018-05-31T12:01:29.914Z,25.02
2018-05-31T12:03:57.484Z,25.12
2018-05-31T12:06:25.046Z,25.21
2018-05-31T12:08:52.605Z,25.41
2018-05-31T12:11:20.174Z,25.50
2018-05-31T12:13:47.754Z,25.42
2018-05-31T12:16:15.275Z,24.97
2018-05-31T12:18:42.829Z,24.77
2018-05-31T12:21:10.382Z,24.83
2018-05-31T12:23:37.959Z,24.74
2018-05-31T12:26:05.488Z,24.75
2018-05-31T12:28:33.077Z,24.97
2018-05-31T12:31:00.642Z,24.91
2018-05-31T12:33:28.187Z,25.12
2018-05-31T12:35:55.718Z,25.26
2018-05-31T12:38:23.319Z,25.53
2018-05-31T12:40:50.873Z,25.58
2018-05-31T12:43:18.422Z,25.43
2018-05-31T12:45:46.000Z,25.53
2018-05-31T12:48:13.565Z,25.86
2018-05-31T12:50:41.214Z,25.80
2018-05-31T12:53:08.786Z,25.82
2018-05-31T12:55:36.332Z,25.98
2018-05-31T12:58:03.930Z,25.81
2018-05-31T13:00:31.465Z,25.84
2018-05-31T13:02:59.218Z,25.79
2018-05-31T13:05:26.774Z,25.68
2018-05-31T13:07:54.333Z,26.08
2018-05-31T13:10:21.892Z,26.13
2018-05-31T13:12:49.475Z,26.07
2018-05-31T13:15:17.024Z,26.21
2018-05-31T13:17:44.577Z,25.91
2018-05-31T13:20:12.481Z,26.31
2018-05-31T13:22:40.101Z,26.60
2018-05-31T13:25:07.642Z,26.14
2018-05-31T13:27:35.322Z,26.02
2018-05-31T13:30:02.892Z,25.83
2018-05-31T13:32:30.543Z,25.70
2018-05-31T13:34:58.070Z,25.96
2018-05-31T13:37:25.661Z,26.12
2018-05-31T13:39:53.219Z,25.88
2018-05-31T13:42:20.779Z,26.20
2018-05-31T13:44:48.331Z,26.08
2018-05-31T13:47:15.855Z,25.97
2018-05-31T13:49:43.466Z,26.22
2018-05-31T13:52:11.121Z,26.83
2018-05-31T13:54:38.763Z,26.66
2018-05-31T13:57:06.342Z,26.63
2018-05-31T13:59:33.895Z,26.22
2018-05-31T14:02:01.469Z,26.48
2018-05-31T14:04:29.018Z,26.18
2018-05-31T14:06:56.683Z,26.14
2018-05-31T14:09:24.228Z,25.87
2018-05-31T14:11:51.803Z,25.85
2018-05-31T14:14:20.330Z,25.81
2018-05-31T14:16:47.943Z,25.94
2018-05-31T14:19:15.487Z,26.25
2018-05-31T14:21:43.032Z,26.36
2018-05-31T14:24:10.725Z,26.65
2018-05-31T14:26:38.287Z,26.89
2018-05-31T14:29:05.945Z,26.78
2018-05-31T14:31:33.502Z,27.38
2018-05-31T14:34:01.170Z,27.49
2018-05-31T14:36:28.695Z,27.35
2018-05-31T14:38:57.129Z,26.99
2018-05-31T14:41:24.678Z,27.09
2018-05-31T14:43:52.325Z,26.77
2018-05-31T14:46:19.859Z,27.14
2018-05-31T14:48:47.425Z,27.13
2018-05-31T14:51:15.188Z,26.52
2018-05-31T14:53:42.939Z,26.73
2018-05-31T14:56:10.534Z,26.76
2018-05-31T14:58:38.094Z,26.81
2018-05-31T15:01:05.649Z,26.59
2018-05-31T15:03:33.210Z,26.90
2018-05-31T15:06:00.725Z,27.06
2018-05-31T15:08:28.280Z,26.99
2018-05-31T15:10:55.797Z,27.25
2018-05-31T15:13:23.447Z,27.42
2018-05-31T15:15:50.987Z,27.16
2018-05-31T15:18:18.679Z,27.41
2018-05-31T15:20:46.240Z,27.17
2018-05-31T15:23:13.767Z,27.48
2018-05-31T15:25:41.347Z,27.04
2018-05-31T15:28:08.906Z,27.19
2018-05-31T15:30:36.451Z,27.45
2018-05-31T15:33:03.998Z,27.67
2018-05-31T15:35:31.589Z,27.61
2018-05-31T15:37:59.100Z,27.39
2018-05-31T15:40:26.706Z,27.43
2018-05-31T15:42:54.266Z,27.23
2018-05-31T15:45:21.834Z,27.38
2018-05-31T15:47:49.484Z,27.41
2018-05-31T15:50:17.041Z,27.19
2018-05-31T15:52:44.610Z,27.39
2018-05-31T15:55:12.269Z,27.42
2018-05-31T15:57:39.823Z,27.85
2018-05-31T16:00:07.397Z,27.64
2018-05-31T16:02:34.944Z,27.28
2018-05-31T16:05:02.603Z,27.42
2018-05-31T16:07:30.172Z,27.80
2018-05-31T16:09:57.931Z,27.63
2018-05-31T16:12:26.928Z,27.93
2018-05-31T16:14:54.685Z,28.10
2018-05-31T16:17:22.238Z,28.09
2018-05-31T16:19:50.291Z,27.77
2018-05-31T16:22:17.874Z,28.20
2018-05-31T16:24:45.946Z,28.29
2018-05-31T16:27:13.607Z,28.64
2018-05-31T16:29:41.475Z,28.58
2018-05-31T16:32:15.108Z,28.40
2018-05-31T16:34:43.659Z,28.45
2018-05-31T16:37:11.202Z,28.02
2018-05-31T16:39:39.066Z,28.23
2018-05-31T16:42:06.654Z,28.96
2018-05-31T16:44:34.214Z,32.30
2018-05-31T16:47:01.738Z,33.46
2018-05-31T16:49:29.320Z,33.86
2018-05-31T16:51:56.881Z,35.24
2018-05-31T16:54:24.521Z,32.35
2018-05-31T16:56:52.073Z,32.22
2018-05-31T16:59:19.608Z,33.60
2018-05-31T17:01:47.228Z,34.38
2018-05-31T17:04:14.779Z,36.23
2018-05-31T17:06:42.338Z,35.16
2018-05-31T17:09:09.897Z,35.06
2018-05-31T17:11:37.458Z,33.01
2018-05-31T17:14:05.018Z,31.61
2018-05-31T17:16:32.589Z,31.77
2018-05-31T17:19:00.114Z,32.95
2018-05-31T17:21:27.665Z,34.08
2018-05-31T17:23:55.201Z,30.80
2018-05-31T17:26:23.144Z,31.15
2018-05-31T17:28:50.950Z,30.77
2018-05-31T17:31:18.669Z,28.22
2018-05-31T17:33:46.207Z,27.94
2018-05-31T17:36:13.872Z,27.47
2018-05-31T17:38:41.436Z,28.54
2018-05-31T17:41:09.511Z,31.21
2018-05-31T17:43:37.265Z,30.24
2018-05-31T17:46:04.927Z,30.39
2018-05-31T17:48:32.442Z,30.27
2018-05-31T17:50:59.994Z,30.49
2018-05-31T17:53:28.749Z,31.44
2018-05-31T17:55:56.496Z,29.73
2018-05-31T17:58:24.019Z,29.35
2018-05-31T18:00:51.577Z,28.20
2018-05-31T18:03:19.136Z,28.25
2018-05-31T18:05:46.681Z,26.90
2018-05-31T18:08:14.985Z,26.73
2018-05-31T18:10:42.614Z,26.37
2018-05-31T18:13:10.239Z,26.05
2018-05-31T18:15:37.789Z,26.43
2018-05-31T18:18:05.348Z,26.55
2018-05-31T18:20:32.918Z,26.38
2018-05-31T18:23:00.467Z,26.49
2018-05-31T18:25:28.023Z,26.70
2018-05-31T18:27:55.549Z,26.45
2018-05-31T18:30:23.102Z,26.59
2018-05-31T18:32:50.706Z,26.27
2018-05-31T18:35:18.230Z,26.29
2018-05-31T18:37:45.825Z,26.46
2018-05-31T18:40:13.905Z,26.31
2018-05-31T18:42:41.566Z,26.67
2018-05-31T18:45:09.115Z,26.41
2018-05-31T18:47:36.778Z,26.16
2018-05-31T18:50:04.337Z,25.43
2018-05-31T18:52:31.897Z,25.39
2018-05-31T18:55:01.212Z,25.09
2018-05-31T18:57:29.078Z,25.29
2018-05-31T18:59:57.096Z,25.30
2018-05-31T19:02:25.147Z,25.08
2018-05-31T19:04:55.213Z,25.14
2018-05-31T19:07:26.860Z,25.05
2018-05-31T19:09:54.437Z,25.16
2018-05-31T19:12:27.362Z,25.04
2018-05-31T19:14:54.991Z,24.94
2018-05-31T19:17:22.569Z,24.90
2018-05-31T19:19:55.947Z,24.83
2018-05-31T19:22:23.501Z,24.77
2018-05-31T19:24:56.700Z,24.61
2018-05-31T19:27:24.354Z,24.44
2018-05-31T19:29:51.902Z,24.32
2018-05-31T19:32:19.506Z,24.04
2018-05-31T19:34:47.036Z,23.88
2018-05-31T19:37:14.704Z,23.91
2018-05-31T19:39:42.288Z,23.84
2018-05-31T19:42:15.390Z,23.78
2018-05-31T19:44:42.918Z,23.94
2018-05-31T19:47:10.485Z,23.69
2018-05-31T19:49:38.023Z,23.56
2018-05-31T19:52:11.324Z,23.49
2018-05-31T19:54:38.875Z,23.43
2018-05-31T19:57:06.533Z,23.31
2018-05-31T19:59:39.830Z,23.17
2018-05-31T20:02:13.049Z,22.98
2018-05-31T20:04:40.584Z,22.98
2018-05-31T20:07:11.488Z,22.54
2018-05-31T20:09:39.489Z,22.24
2018-05-31T20:12:07.040Z,22.07
2018-05-31T20:14:37.853Z,22.43
2018-05-31T20:17:09.189Z,22.51
2018-05-31T20:19:40.401Z,22.24
2018-05-31T20:22:11.299Z,21.78
2018-05-31T20:24:42.912Z,21.78
2018-05-31T20:27:15.222Z,21.61
2018-05-31T20:29:45.428Z,21.51
2018-05-31T20:32:16.676Z,21.56
2018-05-31T20:34:47.084Z,21.25
2018-05-31T20:37:17.371Z,21.08
2018-05-31T20:39:47.087Z,21.01
2018-05-31T20:42:23.189Z,20.80
2018-05-31T20:44:53.891Z,20.78
2018-05-31T20:47:25.019Z,20.70
2018-05-31T20:49:56.140Z,20.56
2018-05-31T20:52:24.284Z,20.67
2018-05-31T20:54:51.811Z,20.43
2018-05-31T20:57:19.581Z,20.39
2018-05-31T20:59:47.138Z,20.47
2018-05-31T21:02:14.862Z,20.34
2018-05-31T21:04:42.716Z,20.26
2018-05-31T21:07:10.299Z,20.19
2018-05-31T21:09:37.953Z,20.20
2018-05-31T21:12:05.921Z,20.11
2018-05-31T21:14:34.092Z,20.07
2018-05-31T21:17:01.754Z,20.05
2018-05-31T21:19:30.149Z,20.02
2018-05-31T21:21:57.706Z,19.96
2018-05-31T21:24:25.274Z,19.92
2018-05-31T21:26:52.823Z,19.92
2018-05-31T21:29:20.455Z,19.82
2018-05-31T21:31:48.033Z,19.82
2018-05-31T21:34:16.083Z,19.77
2018-05-31T21:36:44.866Z,19.79
2018-05-31T21:39:14.089Z,19.84
2018-05-31T21:41:42.868Z,19.84
2018-05-31T21:44:13.585Z,19.84
2018-05-31T21:46:42.549Z,19.82
2018-05-31T21:49:10.223Z,19.82
2018-05-31T21:51:43.773Z,19.76
2018-05-31T21:54:14.640Z,19.73
2018-05-31T21:56:45.704Z,19.61
2018-05-31T21:59:13.681Z,19.60
2018-05-31T22:01:44.013Z,19.61
2018-05-31T22:04:13.849Z,19.42
2018-05-31T22:06:43.110Z,19.39
2018-05-31T22:09:13.067Z,19.44
2018-05-31T22:11:42.011Z,19.47
2018-05-31T22:14:09.721Z,19.26
2018-05-31T22:16:37.619Z,18.91
2018-05-31T22:19:06.274Z,18.75
2018-05-31T22:21:34.777Z,18.78
2018-05-31T22:24:02.928Z,18.80
2018-05-31T22:26:30.458Z,18.54
2018-05-31T22:28:58.032Z,18.45
2018-05-31T22:31:25.560Z,18.24
2018-05-31T22:33:56.811Z,18.55
2018-05-31T22:36:24.563Z,18.32
2018-05-31T22:38:52.924Z,18.71
2018-05-31T22:41:22.514Z,18.58
2018-05-31T22:43:51.021Z,18.56
2018-05-31T22:46:18.973Z,18.55
2018-05-31T22:48:48.358Z,18.29
2018-05-31T22:51:16.529Z,18.00
2018-05-31T22:53:45.009Z,17.48
2018-05-31T22:56:13.234Z,17.32
2018-05-31T22:58:41.734Z,17.40
2018-05-31T23:01:10.065Z,17.49
2018-05-31T23:03:40.346Z,17.70
2018-05-31T23:06:09.814Z,17.98
2018-05-31T23:08:43.896Z,18.17
2018-05-31T23:11:13.456Z,18.09
2018-05-31T23:13:41.569Z,18.08
2018-05-31T23:16:10.569Z,17.75
2018-05-31T23:18:38.625Z,17.96
2018-05-31T23:21:07.027Z,17.80
2018-05-31T23:23:36.306Z,17.95
2018-05-31T23:26:05.870Z,17.79
2018-05-31T23:28:34.534Z,17.98
2018-05-31T23:31:04.575Z,18.05
2018-05-31T23:33:32.379Z,17.81
2018-05-31T23:36:00.165Z,17.88
2018-05-31T23:38:27.713Z,17.88
2018-05-31T23:40:55.270Z,17.75
2018-05-31T23:43:22.823Z,17.88
2018-05-31T23:45:50.483Z,17.96
2018-05-31T23:48:18.355Z,18.04
2018-05-31T23:50:46.533Z,18.08
2018-05-31T23:53:15.315Z,17.66
2018-05-31T23:55:43.657Z,17.76
2018-05-31T23:58:11.226Z,18.00
